ADDS METAR Data INFO
IDs: Format: Raw Decoded Include TAF

Data at: 0143 UTC 26 Feb 2018

KTIF 260135Z AUTO 21006KT CLR M02/M07 A2995 RMK AO2 T10191072
KTIF 260115Z AUTO 21007KT CLR M01/M07 A2994 RMK AO2 T10151070
KTIF 260055Z AUTO 23004KT CLR M01/M07 A2993 RMK AO2 T10111068
KTIF 260035Z AUTO 22004KT CLR 00/M06 A2994 RMK AO2 T10021064
KTIF 260015Z AUTO 23004KT CLR 01/M06 A2993 RMK AO2 T00051062
KTIF 252355Z AUTO 26004KT CLR 02/M06 A2992 RMK AO2 T00221061 10035 20022
KTIF 252335Z AUTO 31003KT CLR 03/M06 A2992 RMK AO2 T00311060
KTIF 252315Z AUTO 27005KT CLR 03/M06 A2992 RMK AO2 T00331063
KTIF 252255Z AUTO 27006KT CLR 04/M07 A2992 RMK AO2 T00351068
KTIF 252235Z AUTO 28009KT CLR 04/M07 A2991 RMK AO2 T00351068
KTIF 252215Z AUTO 27011KT CLR 04/M07 A2991 RMK AO2 T00351068
KTIF 252155Z AUTO 28010KT CLR 04/M07 A2990 RMK AO2 T00351067
KTIF 252135Z AUTO 27012KT CLR 04/M07 A2990 RMK AO2 T00351070
KTIF 252115Z AUTO 27012KT CLR 03/M07 A2990 RMK AO2 T00331070
KTIF 252055Z AUTO 28013KT CLR 03/M07 A2989 RMK AO2 T00321071
KTIF 252035Z AUTO 28011KT CLR 03/M07 A2989 RMK AO2 T00321071
KTIF 252015Z AUTO 28012KT CLR 03/M07 A2989 RMK AO2 T00331072
KTIF 251955Z AUTO 27011G16KT CLR 04/M07 A2989 RMK AO2 T00351070
KTIF 251935Z AUTO 26010KT CLR 03/M07 A2989 RMK AO2 T00321069
KTIF 251915Z AUTO 27014G17KT CLR 03/M08 A2989 RMK AO2 T00301077
KTIF 251855Z AUTO 26012KT CLR 03/M07 A2989 RMK AO2 T00281071
KTIF 251835Z AUTO 26011KT CLR 03/M07 A2989 RMK AO2 T00261066
KTIF 251815Z AUTO 26013G16KT CLR 03/M07 A2990 RMK AO2 T00251071
KTIF 251755Z AUTO 26008KT CLR 02/M07 A2989 RMK AO2 T00231067 10023 21059
KTIF 251735Z AUTO 26009G14KT CLR 02/M07 A2989 RMK AO2 T00191069
KTIF 251715Z AUTO 27011KT CLR 02/M07 A2989 RMK AO2 T00151071
KTIF 251655Z AUTO 26012KT CLR 01/M07 A2989 RMK AO2 T00061073
KTIF 251635Z AUTO 26010G14KT CLR 00/M08 A2989 RMK AO2 T00001076
KTIF 251615Z AUTO 26010KT CLR 00/M08 A2989 RMK AO2 T10051080
KTIF 251555Z AUTO 26011KT CLR M01/M08 A2989 RMK AO2 T10091081
KTIF 251535Z AUTO 25010KT CLR M01/M08 A2989 RMK AO2 T10061079
KTIF 251515Z AUTO 25006KT CLR M02/M08 A2988 RMK AO2 T10221085
KTIF 251455Z AUTO 24005KT CLR M03/M08 A2987 RMK AO2 T10301085
KTIF 251435Z AUTO 24007KT CLR M04/M09 A2987 RMK AO2 T10361090
KTIF 251415Z AUTO 24005KT CLR M04/M09 A2986 RMK AO2 T10401094
KTIF 251355Z AUTO 25005KT CLR M05/M10 A2985 RMK AO2 T10521099
KTIF 251335Z AUTO 24005KT CLR M06/M10 A2984 RMK AO2 T10581101
KTIF 251315Z AUTO 24008KT CLR M05/M10 A2983 RMK AO2 T10531100
KTIF 251255Z AUTO 26009KT CLR M05/M10 A2983 RMK AO2 T10531099
KTIF 251235Z AUTO 26005KT CLR M06/M10 A2982 RMK AO2 T10561100
KTIF 251215Z AUTO 28005KT CLR M06/M10 A2982 RMK AO2 T10561100
KTIF 251155Z AUTO 26006KT CLR M05/M10 A2981 RMK AO2 70002 T10541100 11046 21103
KTIF 251135Z AUTO 27008KT CLR M05/M10 A2981 RMK AO2 T10461097
KTIF 251115Z AUTO 28009KT CLR M05/M10 A2980 RMK AO2 T10461098
KTIF 251055Z AUTO 27010KT CLR M05/M10 A2980 RMK AO2 T10501100
KTIF 251035Z AUTO 29009KT CLR M05/M10 A2980 RMK AO2 T10471100
KTIF 251015Z AUTO 28011KT CLR M05/M10 A2980 RMK AO2 T10501103
KTIF 250955Z AUTO 28012KT CLR M05/M10 A2979 RMK AO2 T10511105
KTIF 250935Z AUTO 28013KT CLR M06/M11 A2979 RMK AO2 T10561110
KTIF 250915Z AUTO 28013KT CLR M06/M11 A2980 RMK AO2 T10561112
KTIF 250855Z AUTO 28010KT CLR M06/M11 A2981 RMK AO2 T10601115
KTIF 250835Z AUTO 27011KT CLR M06/M11 A2981 RMK AO2 T10601113
KTIF 250815Z AUTO 27013KT CLR M06/M11 A2981 RMK AO2 T10621115
KTIF 250755Z AUTO 26010KT CLR M06/M11 A2982 RMK AO2 T10621115
KTIF 250735Z AUTO 26009KT CLR M06/M12 A2982 RMK AO2 T10651116
KTIF 250715Z AUTO 26008KT CLR M06/M11 A2982 RMK AO2 T10651115
KTIF 250655Z AUTO 28007G16KT CLR M07/M12 A2980 RMK AO2 T10671116
KTIF 250635Z AUTO 25013KT CLR M06/M11 A2980 RMK AO2 T10651115
KTIF 250615Z AUTO 31004KT CLR M10/M14 A2980 RMK AO2 T11021136
KTIF 250555Z AUTO 29004KT CLR M10/M13 A2981 RMK AO2 T11021133 11018 21110 400061126
KTIF 250535Z AUTO 28004KT CLR M10/M13 A2981 RMK AO2 T10981127
KTIF 250515Z AUTO 28004KT M11/M13 A2980 RMK AO2 T11101135
KTIF 250455Z AUTO 31003KT CLR M09/M13 A2980 RMK AO2 T10931126
KTIF 250435Z AUTO 28005KT CLR M08/M12 A2980 RMK AO2 T10801119
KTIF 250415Z AUTO 29006KT CLR M08/M12 A2980 RMK AO2 T10771116
KTIF 250355Z AUTO 30005KT CLR M07/M11 A2979 RMK AO2 T10751112
KTIF 250335Z AUTO 27006KT CLR M07/M11 A2979 RMK AO2 T10731110
KTIF 250315Z AUTO 27006KT CLR M08/M11 A2979 RMK AO2 T10791111
KTIF 250255Z AUTO 27005KT M07/M11 A2978 RMK AO2 SKY OBSCURED T10751108
KTIF 250235Z AUTO 26007KT M07/M11 A2978 RMK AO2 SKY OBSCURED T10751109
KTIF 250215Z AUTO 28003KT M06/M10 A2978 RMK AO2 SKY OBSCURED T10651105
KTIF 250155Z AUTO 27006KT M06/M10 A2978 RMK AO2 SKY OBSCURED T10581100
KTIF 250135Z AUTO 27008KT M05/M10 A2977 RMK AO2 SKY OBSCURED T10491096
KTIF 250115Z AUTO 28008KT M04/M09 A2977 RMK AO2 SKY OBSCURED T10451095
KTIF 250055Z AUTO 27010KT CLR M04/M09 A2977 RMK AO2 T10371091
KTIF 250035Z AUTO 29013KT CLR M03/M09 A2976 RMK AO2 T10281087
KTIF 250015Z AUTO 29012G15KT CLR M02/M08 A2974 RMK AO2 T10251085
KTIF 242355Z AUTO 30013G18KT CLR M02/M08 A2974 RMK AO2 T10171085 10006 21026
KTIF 242335Z AUTO 30014KT CLR M01/M08 A2973 RMK AO2 T10111081
KTIF 242315Z AUTO 31014G21KT CLR M01/M08 A2972 RMK AO2 T10081080
KTIF 242255Z AUTO 31015G20KT CLR M01/M08 A2970 RMK AO2 T10061080
KTIF 242235Z AUTO 30015G23KT SCT050 M01/M08 A2969 RMK AO2 T10061080
KTIF 242215Z AUTO 31017G25KT BKN048 M01/M08 A2969 RMK AO2 T10061079
KTIF 242155Z AUTO 30015G23KT SCT046 00/M07 A2968 RMK AO2 T10051075
KTIF 242135Z AUTO 31016G25KT CLR 00/M07 A2968 RMK AO2 T10021074
KTIF 242115Z AUTO 30012G28KT CLR 00/M07 A2967 RMK AO2 T10021071
KTIF 242055Z AUTO 31018G27KT CLR 00/M07 A2966 RMK AO2 T10011071
KTIF 242035Z AUTO 29018G30KT CLR 00/M07 A2967 RMK AO2 T10011071
KTIF 242015Z AUTO 30018G28KT CLR 00/M07 A2966 RMK AO2 T00001075
KTIF 241955Z AUTO 29018G33KT CLR 00/M08 A2967 RMK AO2 T00001083
KTIF 241935Z AUTO 31017G25KT CLR 01/M08 A2967 RMK AO2 T00051078
KTIF 241915Z AUTO 29022G26KT CLR 01/M06 A2967 RMK AO2 T00051062
KTIF 241855Z AUTO 28015G18KT CLR 00/M05 A2968 RMK AO2 T00021049
KTIF 241835Z AUTO 26012KT SCT047 00/M05 A2969 RMK AO2 T10031048
KTIF 241815Z AUTO 26010KT SCT018 SCT039 OVC049 M01/M05 A2970 RMK AO2 T10151051
KTIF 241755Z AUTO 25010KT BKN033 BKN043 OVC050 M03/M06 A2971 RMK AO2 60002 T10261056 11026 21076
KTIF 241735Z AUTO 24009KT OVC031 M04/M06 A2973 RMK AO2 T10361061
KTIF 241715Z AUTO 23007KT OVC029 M04/M07 A2973 RMK AO2 T10431066
KTIF 241655Z AUTO 22007KT M05/M07 A2975 RMK AO2 T10471070
KTIF 241635Z AUTO 22008KT M05/M07 A2976 RMK AO2 T10501071
KTIF 241615Z AUTO 21006KT M05/M06 A2978 RMK AO2 T10551065
KTIF 241555Z AUTO 19006KT M06/M07 A2979 RMK AO2 T10601070
KTIF 241535Z AUTO 18006KT M06/M07 A2980 RMK AO2 T10631072
KTIF 241515Z AUTO 19005KT M06/M07 A2981 RMK AO2 T10651075
KTIF 241455Z AUTO 17004KT M07/M08 A2982 RMK AO2 60002 T10681077
KTIF 241435Z AUTO 19004KT M07/M08 A2984 RMK AO2 T10701080
KTIF 241415Z AUTO 19003KT BKN008 OVC013 M07/M08 A2984 RMK AO2 T10711080
KTIF 241355Z AUTO 00000KT OVC008 M07/M08 A2985 RMK AO2 T10721082